Nearby METAR (Airport) Reports

 

KPRN - Greenville, Alabama, USA
Distance from station: WNW 17mi, 28km
Updated: Mon, 13-Jul-2020 3:56am CDT
Clear
Clear
 Wind from calm
Wind: Calm
Temperature: 72°F , 22°C
Dew Point: 66°F , 19°C
Humidity: 83%
Barometer: 29.89 inHg , 1012.2 hPa
Clouds: Clear
Visibility: 10 miles , 16 km
2020/07/13 08:56 KPRN 130856Z AUTO 00000KT 10SM CLR 22/19 A2989 RMK AO2 SLP114 T02220194 55005 $
KTOI - Troy, Alabama, USA
Distance from station: ENE 21mi, 34km
Updated: Mon, 13-Jul-2020 4:53am CDT
Clear
Clear
 Wind from calm
Wind: Calm
Temperature: 70°F , 21°C
Dew Point: 66°F , 19°C
Humidity: 88%
Barometer: 29.90 inHg , 1012.5 hPa
Clouds: Clear
Visibility: 10 miles , 16 km
2020/07/13 09:53 KTOI 130953Z AUTO 00000KT 10SM CLR 21/19 A2990 RMK AO2 SLP119 T02110194
K79J - Andalusia/Opp Ar, Alabama, USA
Distance from station: S 29mi, 47km
Updated: Mon, 13-Jul-2020 4:56am CDT
Clear
Clear
 Wind from WNW
Wind: WNW 7 mph , 11 km/h
Temperature: 73°F , 23°C
Dew Point: 70°F , 21°C
Humidity: 89%
Barometer: 29.88 inHg , 1011.9 hPa
Clouds: Clear
Visibility: 10 miles , 16 km
2020/07/13 09:56 K79J 130956Z AUTO 29006KT 10SM CLR 23/21 A2988 RMK AO2 SLP114 T02330211
 
KMGM - Montgomery, Alabama, USA
Distance from station: N 39mi, 63km
Updated: Mon, 13-Jul-2020 4:53am CDT
Overcast
Overcast
 Wind from WSW
Wind: WSW 3 mph , 6 km/h
Temperature: 73°F , 23°C
Dew Point: 72°F , 22°C
Humidity: 94%
Barometer: 29.89 inHg , 1012.2 hPa
Clouds: Overcast
Visibility: 10 miles , 16 km
Cloud details: Overcast 600 ft
2020/07/13 09:53 KMGM 130953Z 25003KT 10SM OVC006 23/22 A2989 RMK AO2 SLP117 T02280217
KMXF - Maxwell Afb/Mgm, Alabama, USA
Distance from station: N 44mi, 70km
Updated: Mon, 13-Jul-2020 4:56am CDT
Mist, Overcast
Mist, Overcast
 Wind from WSW
Wind: WSW 5 mph , 7 km/h
Temperature: 72°F , 22°C
Dew Point: 70°F , 21°C
Humidity: 94%
Barometer: 29.88 inHg , 1011.9 hPa
Summary: Mist
Clouds: Overcast
Visibility: 5 miles , 8 km
Cloud details: Overcast 400 ft
2020/07/13 09:56 KMXF 130956Z AUTO 24004KT 5SM BR OVC004 22/21 A2988 RMK AO2 SLP120 T02240207
KLOR - Lowe Ahp/Ft. Ruc, Alabama, USA
Distance from station: SE 44mi, 71km
Updated: Mon, 13-Jul-2020 4:58am CDT
Clear
Clear
 Wind from calm
Wind: Calm
Temperature: 70°F , 21°C
Dew Point: 68°F , 20°C
Humidity: 94%
Barometer: 29.88 inHg , 1011.9 hPa
Clouds: Clear
Visibility: 9 miles , 14 km
2020/07/13 09:58 KLOR 130958Z AUTO 00000KT 9SM CLR 21/20 A2988 RMK AO2 SLP099 T02110199
 
KGZH - Evergreen, Alabama, USA
Distance from station: WSW 46mi, 75km
Updated: Mon, 13-Jul-2020 4:53am CDT
Clear
Clear
 Wind from calm
Wind: Calm
Temperature: 72°F , 22°C
Dew Point: 70°F , 21°C
Humidity: 94%
Barometer: 29.90 inHg , 1012.5 hPa
Clouds: Clear
Visibility: 10 miles , 16 km
2020/07/13 09:53 KGZH 130953Z AUTO 00000KT 10SM CLR 22/21 A2990 RMK AO2 SLP120 T02220206 $
K0J4 - Florala Muni, Alabama, USA
Distance from station: S 47mi, 76km
Updated: Wed, 06-May-2020 8:56am CDT
NOT Current
Clear
Clear
 Wind from NNE
Wind: NNE 10 mph , 17 km/h
Temperature: 72°F , 22°C
Dew Point: 54°F , 12°C
Humidity: 53%
Barometer: 30.04 inHg , 1017.3 hPa
Clouds: Clear
Visibility: 10 miles , 16 km
2020/05/06 13:56 K0J4 061356Z AUTO 03009KT 10SM CLR 22/12 A3004 RMK AO2 SLP169 T02220122
KOZR - Ozark/Cairns Aaf, Alabama, USA
Distance from station: SE 49mi, 78km
Updated: Mon, 13-Jul-2020 4:56am CDT

 Wind from NW
Wind: NW 3 mph , 6 km/h
Visibility: 10 miles , 16 km
2020/07/13 09:56 KOZR 130956Z AUTO 31003KT 10SM M 22/21 A2988 RMK AO2 SLP117 T02150206 $
 
KHEY - Ft Rucker/Hanche, Alabama, USA
Distance from station: ESE 49mi, 79km
Updated: Mon, 13-Jul-2020 4:58am CDT
Clear
Clear
 Wind from calm
Wind: Calm
Temperature: 70°F , 21°C
Dew Point: 70°F , 21°C
Humidity: 100%
Barometer: 29.87 inHg , 1011.5 hPa
Clouds: Clear
Visibility: 10 miles , 16 km
2020/07/13 09:58 KHEY 130958Z AUTO 00000KT 10SM CLR 21/21 A2987 RMK AO2 SLP114 T02140205
KDHN - Dothan, Alabama, USA
Distance from station: ESE 61mi, 97km
Updated: Mon, 13-Jul-2020 4:53am CDT
Clear
Clear
 Wind from NNW
Wind: NNW 6 mph , 9 km/h
Temperature: 72°F , 22°C
Dew Point: 70°F , 21°C
Humidity: 94%
Barometer: 29.92 inHg , 1013.2 hPa
Clouds: Clear
Visibility: 10 miles , 16 km
2020/07/13 09:53 KDHN 130953Z AUTO 34005KT 10SM CLR 22/21 A2992 RMK AO2 SLP125 T02220206
KCEW - Crestview, Florida, USA
Distance from station: S 66mi, 107km
Updated: Mon, 13-Jul-2020 4:53am CDT
Clear
Clear
 Wind from NNW
Wind: NNW 6 mph , 9 km/h
Temperature: 75°F , 24°C
Dew Point: 72°F , 22°C
Humidity: 89%
Barometer: 29.89 inHg , 1012.2 hPa
Clouds: Clear
Visibility: 10 miles , 16 km
2020/07/13 09:53 KCEW 130953Z AUTO 33005KT 10SM CLR 24/22 A2989 RMK AO2 SLP116 T02390222
 
KEUF - Eufaula, Alabama, USA
Distance from station: ENE 73mi, 118km
Updated: Mon, 04-Mar-2019 12:58pm CST
NOT Current

 
Barometer: 30.10 inHg , 1019.3 hPa
2019/03/04 18:58 KEUF 041858Z AUTO A3010 RMK AO2 RAEMM TSB02B32 SLPNO PWINO FZRANO TSNO $
KJKA - Gulf Shores, Alabama, USA
Distance from station: SSW 132mi, 212km
Updated: Mon, 13-Jul-2020 4:55am CDT
Heavy thunderstorm, Rain, Overcast
Heavy thunderstorm, Rain, Overcast
 Wind from NNE
Wind: NNE 8 mph , 13 km/h
Temperature: 75°F , 24°C
Dew Point: 73°F , 23°C
Humidity: 94%
Barometer: 29.92 inHg , 1013.2 hPa
Summary: Heavy thunderstorm, Rain
Clouds: Overcast
Visibility: 2 1/2 miles , 4 km
Cloud details: Partly cloudy 1900 ft
Mostly cloudy 4000 ft
Overcast 8000 ft
2020/07/13 09:55 KJKA 130955Z AUTO 03007KT 2 1/2SM +TSRA SCT019 BKN040 OVC080 24/23 A2992 RMK AO2 VIS 1 1/4V5 LTG DSNT ALQS P0082 T02350230
KLSF - Ft Benning/Colum, Georgia, USA
Distance from station: SNE 89mi, 143km
Updated: Mon, 13-Jul-2020 4:56am CDT
Overcast
Overcast
 Wind from NW
Wind: NW 6 mph , 9 km/h
Temperature: 72°F , 22°C
Dew Point: 70°F , 21°C
Humidity: 94%
Barometer: 29.86 inHg , 1011.2 hPa
Clouds: Overcast
Visibility: 10 miles , 16 km
Cloud details: Overcast 600 ft
2020/07/13 09:56 KLSF 130956Z AUTO 31005KT 10SM OVC006 22/21 A2986 RMK AO2 SLP115 T02180206 $
 
KMOB - Mobile/Bates, Alabama, USA
Distance from station: SW 125mi, 202km
Updated: Mon, 13-Jul-2020 4:56am CDT
Few Clouds
Few Clouds
 Wind from SSW
Wind: SSW 3 mph , 6 km/h
Temperature: 75°F , 24°C
Dew Point: 75°F , 24°C
Humidity: 100%
Barometer: 29.90 inHg , 1012.5 hPa
Clouds: Few Clouds
Visibility: 10 miles , 16 km
Cloud details: Few Clouds 4700 ft
2020/07/13 09:56 KMOB 130956Z AUTO 20003KT 10SM FEW047 24/24 A2990 RMK AO2 LTG DSNT SW AND W SLP122 T02390239 $
KNMM - Meridian Nas, Mississippi, USA
Distance from station: WNW 151mi, 243km
Updated: Mon, 13-Jul-2020 4:56am CDT
Mist, Clear
Mist, Clear
 Wind from calm
Wind: Calm
Temperature: 72°F , 22°C
Dew Point: 72°F , 22°C
Humidity: 100%
Barometer: 29.88 inHg , 1011.9 hPa
Summary: Mist
Clouds: Clear
Visibility: 4 miles , 6 km
2020/07/13 09:56 KNMM 130956Z AUTO 00000KT 4SM BR CLR 22/22 A2988 RMK AO2 SLP125 T02220217
KQHY - Hurlbert (Ft Walton Bch), Florida, USA
Distance from station: S 94mi, 151km
Updated: Mon, 13-Jul-2020 4:56am CDT
Overcast
Overcast
 Wind from NW
Wind: NW 3 mph , 6 km/h
Temperature: 81°F , 27°C
Heat Index: 88°F , 31°C
Dew Point: 77°F , 25°C
Humidity: 89%
Clouds: Overcast
Visibility: 10 miles , 16 km
Cloud details: Overcast 13000 ft
2020/07/13 09:56 KQHY 130956Z AUTO 31003KT 10SM OVC130 27/25 M RMK AO2 LTG DSNT W SLPNO T02730253 $
 
KTCL - Tuscaloosa, Alabama, USA
Distance from station: NNW 129mi, 207km
Updated: Mon, 13-Jul-2020 4:53am CDT
Fog, Overcast
Fog, Overcast
 Wind from calm
Wind: Calm
Temperature: 72°F , 22°C
Dew Point: 72°F , 22°C
Humidity: 100%
Barometer: 29.88 inHg , 1011.9 hPa
Summary: Fog
Clouds: Overcast
Visibility: 1/4 mile , 0.4 km
Cloud details: Overcast 200 ft
2020/07/13 09:53 KTCL 130953Z AUTO 00000KT 1/4SM FG VV002 22/22 A2988 RMK AO2 SLP114 T02220222
KECP - Panama City, Florida, USA
Distance from station: SSE 122mi, 196km
Updated: Mon, 13-Jul-2020 5:01am CDT
Few Clouds
Few Clouds
 Wind from NNE
Wind: NNE 5 mph , 7 km/h
Temperature: 73°F , 23°C
Dew Point: 72°F , 22°C
Humidity: 94%
Barometer: 29.87 inHg , 1011.5 hPa
Clouds: Few Clouds
Visibility: 10 miles , 16 km
Cloud details: Few Clouds 900 ft
2020/07/13 10:01 KECP 131001Z AUTO 03004KT 10SM FEW009 23/22 A2987 RMK AO2 T02330222
KCBM - Columbus Afb, Mississippi, USA
Distance from station: NW 175mi, 282km
Updated: Mon, 13-Jul-2020 4:56am CDT
Few Clouds
Few Clouds
 Wind from calm
Wind: Calm
Temperature: 73°F , 23°C
Dew Point: 72°F , 22°C
Humidity: 94%
Barometer: 29.87 inHg , 1011.5 hPa
Clouds: Few Clouds
Visibility: 10 miles , 16 km
Cloud details: Few Clouds 300 ft
2020/07/13 09:56 KCBM 130956Z AUTO 00000KT 10SM FEW003 23/22 A2987 RMK AO2 SLP116 T02250218 $
 
KBHM - Birmingham, Alabama, USA
Distance from station: N 132mi, 212km
Updated: Mon, 13-Jul-2020 4:53am CDT
Clear
Clear
 Wind from calm
Wind: Calm
Temperature: 70°F , 21°C
Dew Point: 66°F , 19°C
Humidity: 88%
Barometer: 29.91 inHg , 1012.9 hPa
Clouds: Clear
Visibility: 10 miles , 16 km
2020/07/13 09:53 KBHM 130953Z 00000KT 10SM CLR 21/19 A2991 RMK AO2 SLP122 T02060189
KAAF - Apalachicola, Florida, USA
Distance from station: SSE 156mi, 250km
Updated: Mon, 13-Jul-2020 4:53am CDT
Clear
Clear
 Wind from S
Wind: S 3 mph , 6 km/h
Temperature: 77°F , 25°C
Dew Point: 72°F , 22°C
Humidity: 83%
Barometer: 29.86 inHg , 1011.2 hPa
Clouds: Clear
Visibility: 10 miles , 16 km
2020/07/13 09:53 KAAF 130953Z AUTO 17003KT 10SM CLR 25/22 A2986 RMK AO2 SLP112 T02500222 TSNO
KATL - Atlanta, Georgia, USA
Distance from station: NE 177mi, 287km
Updated: Mon, 13-Jul-2020 4:52am CDT
Partly cloudy
Partly cloudy
 Wind from W
Wind: W 6 mph , 9 km/h
Temperature: 68°F , 20°C
Dew Point: 64°F , 18°C
Humidity: 88%
Barometer: 29.88 inHg , 1011.9 hPa
Clouds: Partly cloudy
Visibility: 10 miles , 16 km
Cloud details: Partly cloudy 400 ft
Partly cloudy 20000 ft
2020/07/13 09:52 KATL 130952Z 28005KT 10SM SCT004 SCT200 20/18 A2988 RMK AO2 SLP108 T02000183
 
KGPT - Gulfport, Mississippi, USA
Distance from station: SW 192mi, 309km
Updated: Mon, 13-Jul-2020 4:53am CDT
Overcast
Overcast
 Wind from NNE
Wind: NNE 5 mph , 7 km/h
Temperature: 82°F , 28°C
Heat Index: 91°F , 33°C
Dew Point: 79°F , 26°C
Humidity: 89%
Barometer: 29.87 inHg , 1011.5 hPa
Clouds: Overcast
Visibility: 10 miles , 16 km
Cloud details: Few Clouds 2100 ft
Few Clouds 2500 ft
Overcast 3700 ft
2020/07/13 09:53 KGPT 130953Z AUTO 02004KT 10SM FEW021 FEW025 OVC037 28/26 A2987 RMK AO2 LTG DSNT NE-S SLP115 T02830256
KNEW - New Orleans/Lake, Louisiana, USA
Distance from station: SW 255mi, 410km
Updated: Mon, 13-Jul-2020 4:53am CDT
Mostly cloudy
Mostly cloudy
 Wind from SW
Wind: SW 12 mph , 19 km/h
Temperature: 84°F , 29°C
Heat Index: 96°F , 36°C
Dew Point: 79°F , 26°C
Humidity: 84%
Barometer: 29.88 inHg , 1011.9 hPa
Clouds: Mostly cloudy
Visibility: 10 miles , 16 km
Cloud details: Mostly cloudy 4200 ft
2020/07/13 09:53 KNEW 130953Z AUTO 22010KT 10SM BKN042 29/26 A2988 RMK AO2 SLP111 T02890256
KP92 - Salt Point, Louisiana, USA
Distance from station: SW 347mi, 559km
Updated: Mon, 13-Jul-2020 4:59am CDT

 Wind from WSW
Wind: WSW 7 mph , 11 km/h
Temperature: 84°F , 29°C
Heat Index: 96°F , 36°C
Dew Point: 79°F , 26°C
Humidity: 84%
Barometer: 29.87 inHg , 1011.5 hPa
2020/07/13 09:59 KP92 130959Z AUTO 25006KT 29/26 A2987 RMK AO1 SLP116 T02890261 $